Time;durP1;ratioP1;P1;durP2;ratioP2;P2;SDS_P1;SDS_P2;PMS_P1;PMS_P2;Temp;Humidity;BMP_temperature;BMP_pressure;BME280_temperature;BME280_humidity;BME280_pressure;Samples;Min_cycle;Max_cycle;Signal;HPM_P1;HPM_P2
2024/03/23 00:01:45;;;;;;;;;;;;;;;10.40;100.00;101023.50;5251174;28;20037;-80
2024/03/23 00:04:18;;;;;;;11.30;3.60;;;;;;;9.64;100.00;101035.63;5251252;28;20263;-80
2024/03/23 00:06:51;;;;;;;8.93;3.13;;;;;;;9.57;100.00;101038.84;5246200;28;20390;-80
2024/03/23 00:09:24;;;;;;;9.13;3.22;;;;;;;9.56;100.00;101042.41;5246779;28;20413;-82
2024/03/23 00:11:57;;;;;;;;;;;;;;;10.29;100.00;101035.81;5250610;28;20504;-80
2024/03/23 00:14:30;;;;;;;10.55;3.42;;;;;;;9.60;100.00;101033.38;5248009;28;19920;-80
2024/03/23 00:17:03;;;;;;;7.80;3.00;;;;;;;9.51;100.00;101037.56;5245631;28;20052;-80
2024/03/23 00:19:36;;;;;;;14.60;3.53;;;;;;;9.44;100.00;101038.97;5247807;28;20032;-81
2024/03/23 00:22:09;;;;;;;7.60;3.25;;;;;;;9.50;100.00;101028.00;5249109;28;20036;-81
2024/03/23 00:24:42;;;;;;;7.68;2.65;;;;;;;9.46;100.00;101016.97;5248962;28;20360;-81
2024/03/23 00:27:17;;;;;;;8.23;3.22;;;;;;;9.55;100.00;101010.22;5247068;28;20112;-80
2024/03/23 00:29:50;;;;;;;8.55;2.85;;;;;;;9.43;100.00;101004.16;5249276;28;20032;-82
2024/03/23 00:32:23;;;;;;;10.30;2.80;;;;;;;9.41;100.00;101006.03;5251856;28;20024;-82
2024/03/23 00:34:56;;;;;;;6.03;2.53;;;;;;;9.39;100.00;101007.91;5249671;28;20029;-81
2024/03/23 00:37:29;;;;;;;6.53;3.25;;;;;;;9.43;100.00;101003.28;5251185;28;20459;-82
2024/03/23 00:40:04;;;;;;;7.95;2.60;;;;;;;9.35;100.00;100982.97;5246127;28;20029;-80
2024/03/23 00:42:36;;;;;;;7.78;2.67;;;;;;;9.34;100.00;100994.38;5249060;28;20040;-80
2024/03/23 00:45:09;;;;;;;7.18;2.33;;;;;;;9.36;100.00;100994.28;5248860;28;20041;-82
2024/03/23 00:47:42;;;;;;;7.93;2.72;;;;;;;9.33;100.00;101000.56;5249947;28;20041;-80
2024/03/23 00:50:15;;;;;;;7.07;3.28;;;;;;;9.32;100.00;100992.81;5248802;28;20028;-82
2024/03/23 00:52:48;;;;;;;10.88;3.67;;;;;;;9.31;100.00;100997.22;5247949;28;20029;-80
2024/03/23 00:55:21;;;;;;;7.72;2.47;;;;;;;9.29;100.00;100995.69;5250321;28;20292;-80
2024/03/23 00:57:53;;;;;;;7.35;2.70;;;;;;;9.30;100.00;100997.34;5248607;28;20064;-82
2024/03/23 01:00:25;;;;;;;7.70;2.83;;;;;;;9.22;100.00;100998.78;5248513;28;20029;-80
2024/03/23 01:02:56;;;;;;;7.25;2.50;;;;;;;9.19;100.00;101000.78;5250196;28;20037;-80
2024/03/23 01:05:28;;;;;;;10.57;3.58;;;;;;;9.12;100.00;100981.28;5248888;28;20067;-80
2024/03/23 01:08:01;;;;;;;10.50;2.93;;;;;;;9.21;100.00;100986.66;5248660;28;20366;-82
2024/03/23 01:10:33;;;;;;;8.77;3.30;;;;;;;9.17;100.00;100994.88;5248288;28;20482;-80
2024/03/23 01:13:05;;;;;;;10.45;3.10;;;;;;;9.10;100.00;100993.66;5248569;28;20035;-81
2024/03/23 01:15:37;;;;;;;10.23;3.28;;;;;;;9.10;100.00;100998.88;5248285;28;20040;-80
2024/03/23 01:18:09;;;;;;;6.97;2.47;;;;;;;8.97;100.00;100981.50;5249038;28;20374;-80
2024/03/23 01:20:41;;;;;;;7.72;2.80;;;;;;;8.95;100.00;100980.81;5248979;28;20048;-79
2024/03/23 01:23:13;;;;;;;9.45;3.10;;;;;;;8.96;100.00;100982.47;5249731;28;20033;-80
2024/03/23 01:25:53;;;;;;;7.43;2.92;;;;;;;9.18;100.00;100983.44;5249782;28;20028;-79
2024/03/23 01:28:24;;;;;;;6.93;2.45;;;;;;;9.00;100.00;100988.28;5248825;28;20471;-79
2024/03/23 01:30:56;;;;;;;10.18;3.60;;;;;;;9.01;100.00;100984.72;5248095;28;20040;-79
2024/03/23 01:33:28;;;;;;;7.57;2.50;;;;;;;8.93;100.00;100980.06;5246093;28;20029;-80
2024/03/23 01:36:00;;;;;;;8.50;2.83;;;;;;;8.97;100.00;100973.66;5244113;28;20040;-81
2024/03/23 01:38:32;;;;;;;10.73;2.85;;;;;;;8.94;100.00;100970.44;5248270;28;20409;-81
2024/03/23 01:41:04;;;;;;;11.32;3.55;;;;;;;8.93;100.00;100967.00;5248320;28;20032;-79
2024/03/23 01:43:36;;;;;;;6.88;2.60;;;;;;;8.99;100.00;100970.94;5247413;28;20107;-80
2024/03/23 01:46:08;;;;;;;9.52;3.05;;;;;;;8.95;100.00;100959.91;5247539;28;20044;-81
2024/03/23 01:48:40;;;;;;;7.28;3.10;;;;;;;8.99;100.00;100982.22;5249161;28;20708;-81
2024/03/23 01:51:13;;;;;;;6.55;3.20;;;;;;;8.95;100.00;100966.91;5248654;28;20039;-80
2024/03/23 01:53:45;;;;;;;;;;;;;;;9.74;100.00;100972.97;5248762;28;20228;-80
2024/03/23 01:56:16;;;;;;;6.13;3.00;;;;;;;9.06;100.00;100961.69;5248804;28;19917;-80
2024/03/23 01:58:48;;;;;;;9.95;3.20;;;;;;;8.91;100.00;100953.25;5247865;28;20033;-80
2024/03/23 02:01:20;;;;;;;8.80;3.55;;;;;;;8.89;100.00;100959.53;5252103;28;20051;-80
2024/03/23 02:03:52;;;;;;;9.73;3.38;;;;;;;8.87;100.00;100966.66;5252310;28;20521;-80
2024/03/23 02:06:25;;;;;;;8.35;3.78;;;;;;;8.85;100.00;100965.94;5246620;28;20041;-80
2024/03/23 02:08:57;;;;;;;9.95;3.50;;;;;;;8.83;100.00;100965.22;5245070;28;20386;-80
2024/03/23 02:11:29;;;;;;;7.65;3.88;;;;;;;8.81;100.00;100961.88;5246401;28;20032;-80
2024/03/23 02:14:01;;;;;;;9.10;3.50;;;;;;;8.80;100.00;100958.44;5247845;28;20054;-80
2024/03/23 02:16:33;;;;;;;9.98;3.95;;;;;;;8.85;100.00;100948.47;5249348;28;20037;-80
2024/03/23 02:19:05;;;;;;;11.52;4.30;;;;;;;8.78;100.00;100934.22;5246313;28;20043;-80
2024/03/23 02:21:37;;;;;;;13.88;4.25;;;;;;;8.77;100.00;100932.56;5249082;28;20394;-80
2024/03/23 02:24:09;;;;;;;14.57;4.18;;;;;;;8.75;100.00;100942.28;5244981;28;20055;-80
2024/03/23 02:26:41;;;;;;;10.68;4.45;;;;;;;8.79;100.00;100935.91;5249933;28;20031;-80
2024/03/23 02:29:13;;;;;;;9.52;4.05;;;;;;;8.72;100.00;100932.09;5248337;28;20033;-80
2024/03/23 02:31:45;;;;;;;8.20;4.25;;;;;;;8.70;100.00;100906.06;5248648;28;20448;-80
2024/03/23 02:34:16;;;;;;;7.15;3.17;;;;;;;8.67;100.00;100903.66;5249127;28;20040;-81
2024/03/23 02:36:49;;;;;;;10.02;4.05;;;;;;;8.74;100.00;100924.94;5248895;28;20867;-80
2024/03/23 02:39:21;;;;;;;11.93;4.88;;;;;;;8.73;100.00;100918.06;5247415;28;20032;-80
2024/03/23 02:41:53;;;;;;;9.63;3.65;;;;;;;8.69;100.00;100914.03;5247675;28;20342;-82
2024/03/23 02:44:24;;;;;;;9.10;3.83;;;;;;;8.72;100.00;100908.56;5249109;28;20120;-81
2024/03/23 02:46:56;;;;;;;12.30;4.45;;;;;;;8.69;100.00;100922.69;5248346;28;20033;-81
2024/03/23 02:49:28;;;;;;;11.90;3.20;;;;;;;8.62;100.00;100916.25;5247159;28;20569;-80
2024/03/23 02:52:00;;;;;;;7.57;3.30;;;;;;;8.66;100.00;100927.31;5246364;28;20060;-82
2024/03/23 02:54:32;;;;;;;9.57;3.92;;;;;;;8.61;100.00;100925.03;5248067;28;20040;-80
2024/03/23 02:57:04;;;;;;;7.30;3.55;;;;;;;8.58;100.00;100925.28;5250038;28;20032;-82
2024/03/23 02:59:36;;;;;;;12.35;3.70;;;;;;;8.59;100.00;100926.09;5248291;28;20716;-82
2024/03/23 03:02:08;;;;;;;6.35;3.00;;;;;;;8.55;100.00;100917.66;5231848;28;20075;-80
2024/03/23 03:04:40;;;;;;;9.73;2.92;;;;;;;8.56;100.00;100926.31;5253501;28;20056;-81
2024/03/23 03:07:12;;;;;;;9.88;3.78;;;;;;;8.51;100.00;100930.13;5252439;28;20036;-82
2024/03/23 03:09:44;;;;;;;8.50;3.30;;;;;;;8.57;100.00;100931.44;5251564;28;20033;-80
2024/03/23 03:12:16;;;;;;;8.73;3.28;;;;;;;8.55;100.00;100929.91;5248805;28;20031;-81
2024/03/23 03:14:48;;;;;;;8.48;2.78;;;;;;;8.49;100.00;100937.25;5251337;28;20049;-80
2024/03/23 03:17:20;;;;;;;8.60;2.85;;;;;;;8.36;100.00;100920.78;5251377;28;20473;-80
2024/03/23 03:19:55;;;;;;;9.18;2.83;;;;;;;8.33;100.00;100920.19;5251512;28;20037;-80
2024/03/23 03:22:28;;;;;;;7.53;3.03;;;;;;;8.35;100.00;100941.78;5251063;28;20036;-80
2024/03/23 03:25:00;;;;;;;9.88;3.33;;;;;;;8.27;100.00;100929.31;5252243;28;20028;-80
2024/03/23 03:27:32;;;;;;;8.05;2.50;;;;;;;8.25;100.00;100934.63;5247114;28;20060;-80
2024/03/23 03:30:05;;;;;;;7.60;2.60;;;;;;;8.21;100.00;100934.97;5250751;28;20505;-80
2024/03/23 03:32:37;;;;;;;;;;;;;;;8.95;100.00;100919.88;5252808;28;20029;-81
2024/03/23 03:35:09;;;;;;;7.85;2.35;;;;;;;8.13;100.00;100917.25;5250394;28;19920;-80
2024/03/23 03:37:42;;;;;;;6.18;2.05;;;;;;;8.10;100.00;100917.47;5250150;28;20035;-80
2024/03/23 03:40:14;;;;;;;5.10;2.30;;;;;;;8.10;100.00;100909.66;5251505;28;20819;-80
2024/03/23 03:42:48;;;;;;;8.02;2.70;;;;;;;8.03;100.00;100913.66;5249889;28;20052;-80
2024/03/23 03:45:20;;;;;;;7.82;2.75;;;;;;;8.00;100.00;100930.38;5252416;28;20451;-80
2024/03/23 03:47:52;;;;;;;9.65;2.45;;;;;;;7.96;100.00;100928.13;5250458;28;20033;-81
2024/03/23 03:50:25;;;;;;;10.48;2.88;;;;;;;7.87;100.00;100921.75;5250100;28;20025;-82
2024/03/23 03:52:56;;;;;;;9.90;2.93;;;;;;;7.89;100.00;100916.47;5252462;28;20506;-80
2024/03/23 03:55:28;;;;;;;8.77;2.55;;;;;;;7.76;100.00;100908.66;5251294;28;20028;-80
2024/03/23 03:58:00;;;;;;;9.00;2.70;;;;;;;7.67;100.00;100902.34;5231235;28;20052;-82
2024/03/23 04:00:32;;;;;;;10.50;2.67;;;;;;;7.69;100.00;100913.50;5251798;28;20068;-80
2024/03/23 04:03:05;;;;;;;8.93;2.40;;;;;;;7.65;100.00;100916.41;5250566;28;20033;-81
2024/03/23 04:05:37;;;;;;;6.38;2.28;;;;;;;7.70;100.00;100911.72;5253361;28;20041;-81
2024/03/23 04:08:09;;;;;;;8.48;2.53;;;;;;;7.67;100.00;100917.16;5252581;28;20028;-80
2024/03/23 04:10:41;;;;;;;10.93;2.60;;;;;;;7.63;100.00;100913.09;5250946;28;20025;-80
2024/03/23 04:13:13;;;;;;;11.10;2.92;;;;;;;7.59;100.00;100909.06;5250542;28;20028;-80
2024/03/23 04:15:45;;;;;;;8.48;2.38;;;;;;;7.57;100.00;100915.19;5249619;28;20047;-82
2024/03/23 04:18:17;;;;;;;10.60;2.80;;;;;;;7.52;100.00;100912.09;5250611;28;20727;-81
2024/03/23 04:20:49;;;;;;;8.95;2.80;;;;;;;7.49;100.00;100904.47;5253247;28;20036;-80
2024/03/23 04:23:21;;;;;;;9.50;2.60;;;;;;;7.47;100.00;100911.59;5251386;28;20155;-80
2024/03/23 04:25:53;;;;;;;6.38;2.83;;;;;;;7.46;100.00;100909.06;5250696;28;20028;-80
2024/03/23 04:28:25;;;;;;;11.30;2.95;;;;;;;7.33;100.00;100898.69;5240280;28;20147;-80
2024/03/23 04:30:57;;;;;;;7.47;2.58;;;;;;;7.38;100.00;100908.78;5246734;28;20037;-80
2024/03/23 04:33:29;;;;;;;7.70;2.70;;;;;;;7.30;100.00;100910.16;5243163;28;20037;-80
2024/03/23 04:36:01;;;;;;;7.28;3.20;;;;;;;7.19;100.00;100897.03;5228864;28;20041;-80
2024/03/23 04:38:33;;;;;;;7.63;3.15;;;;;;;7.20;100.00;100905.72;5246127;28;20486;-82
2024/03/23 04:41:05;;;;;;;5.95;3.03;;;;;;;7.27;100.00;100919.97;5245989;28;20439;-80
2024/03/23 04:43:36;;;;;;;10.68;3.65;;;;;;;7.19;100.00;100912.66;5244092;28;20110;-82
2024/03/23 04:46:08;;;;;;;8.65;3.33;;;;;;;7.14;100.00;100903.53;5245533;28;20045;-80
2024/03/23 04:48:40;;;;;;;7.80;3.38;;;;;;;7.19;100.00;100922.25;5245364;28;20040;-81
2024/03/23 04:51:22;;;;;;;7.25;3.30;;;;;;;7.37;100.00;100910.56;5246024;28;20028;-80
2024/03/23 04:53:54;;;;;;;9.00;3.92;;;;;;;7.15;100.00;100913.00;5243371;28;20032;-80
2024/03/23 04:56:26;;;;;;;10.73;4.28;;;;;;;7.16;100.00;100925.06;5246234;28;20512;-80
2024/03/23 04:59:01;;;;;;;8.60;4.05;;;;;;;7.12;100.00;100921.84;5248193;28;20236;-80
2024/03/23 05:01:33;;;;;;;13.05;4.90;;;;;;;7.11;100.00;100914.16;5249710;28;20040;-80
2024/03/23 05:04:05;;;;;;;11.57;4.60;;;;;;;7.05;100.00;100905.84;5249060;28;20037;-80
2024/03/23 05:06:36;;;;;;;10.20;4.35;;;;;;;7.10;100.00;100902.91;5248483;28;20039;-82
2024/03/23 05:09:11;;;;;;;13.13;5.38;;;;;;;7.10;100.00;100904.69;5247366;28;20415;-80
2024/03/23 05:11:43;;;;;;;12.10;5.13;;;;;;;7.06;100.00;100904.88;5251717;28;20198;-79
2024/03/23 05:14:15;;;;;;;15.85;5.55;;;;;;;7.03;100.00;100901.66;5250584;28;20425;-80
2024/03/23 05:16:47;;;;;;;11.40;6.13;;;;;;;6.99;100.00;100898.44;5251069;28;20043;-81
2024/03/23 05:19:21;;;;;;;13.07;5.57;;;;;;;7.07;100.00;100903.94;5229826;28;20410;-79
2024/03/23 05:21:53;;;;;;;10.80;5.38;;;;;;;7.00;100.00;100917.50;5242649;28;20498;-80
2024/03/23 05:24:25;;;;;;;8.85;5.00;;;;;;;6.93;100.00;100903.22;5239422;28;20036;-81
2024/03/23 05:26:59;;;;;;;12.60;5.88;;;;;;;6.98;100.00;100909.78;5241507;28;20040;-81
2024/03/23 05:29:31;;;;;;;10.07;5.90;;;;;;;6.99;100.00;100911.44;5245681;28;20039;-79
2024/03/23 05:32:03;;;;;;;11.43;6.30;;;;;;;6.93;100.00;100900.63;5244646;28;20482;-82
2024/03/23 05:34:35;;;;;;;14.60;7.13;;;;;;;6.91;100.00;100899.91;5245159;28;20276;-81
2024/03/23 05:37:07;;;;;;;12.00;6.13;;;;;;;6.93;100.00;100893.66;5245924;28;20025;-80
2024/03/23 05:39:39;;;;;;;12.02;6.10;;;;;;;6.91;100.00;100897.31;5243917;28;20041;-81
2024/03/23 05:42:10;;;;;;;15.80;6.55;;;;;;;6.92;100.00;100901.56;5242419;28;20035;-82
2024/03/23 05:44:45;;;;;;;12.23;5.47;;;;;;;6.98;100.00;100904.59;5247701;28;20430;-81
2024/03/23 05:47:17;;;;;;;17.08;6.20;;;;;;;6.87;100.00;100895.84;5246153;28;20044;-80
2024/03/23 05:49:51;;;;;;;11.65;6.18;;;;;;;6.94;100.00;100905.75;5248180;28;20033;-81
2024/03/23 05:52:25;;;;;;;13.27;5.75;;;;;;;6.93;100.00;100904.06;5248582;28;20032;-81
2024/03/23 05:54:58;;;;;;;10.70;4.75;;;;;;;6.87;100.00;100895.84;5244188;28;20040;-80
2024/03/23 05:57:30;;;;;;;11.48;5.30;;;;;;;6.94;100.00;100894.50;5249576;28;20036;-80
2024/03/23 06:00:03;;;;;;;11.45;5.43;;;;;;;6.94;100.00;100899.69;5248084;28;20032;-81
2024/03/23 06:02:35;;;;;;;10.90;5.40;;;;;;;6.90;100.00;100882.63;5250814;28;20036;-81
2024/03/23 06:05:07;;;;;;;10.48;5.38;;;;;;;6.92;100.00;100894.56;5250463;28;20021;-80
2024/03/23 06:07:39;;;;;;;10.18;5.13;;;;;;;6.93;100.00;100900.63;5250002;28;20044;-80
2024/03/23 06:10:11;;;;;;;12.88;5.00;;;;;;;6.90;100.00;100898.25;5222355;28;20047;-80
2024/03/23 06:12:43;;;;;;;12.60;5.18;;;;;;;6.92;100.00;100897.19;5246312;28;20371;-80
2024/03/23 06:15:15;;;;;;;17.80;5.20;;;;;;;7.00;100.00;100907.91;5246075;28;20032;-81
2024/03/23 06:17:46;;;;;;;13.13;4.75;;;;;;;7.11;100.00;100916.75;5244902;28;20048;-80
2024/03/23 06:20:18;;;;;;;9.90;4.50;;;;;;;7.17;100.00;100917.19;5244729;28;20482;-80
2024/03/23 06:22:50;;;;;;;13.20;4.20;;;;;;;7.27;100.00;100920.81;5244598;28;20040;-80
2024/03/23 06:25:22;;;;;;;11.23;4.03;;;;;;;7.29;100.00;100913.72;5242708;28;20037;-80
2024/03/23 06:27:54;;;;;;;11.38;4.18;;;;;;;7.34;100.00;100912.56;5242636;28;20041;-80
2024/03/23 06:30:26;;;;;;;9.63;4.57;;;;;;;7.30;100.00;100904.13;5241815;28;20040;-80
2024/03/23 06:32:58;;;;;;;13.40;4.25;;;;;;;7.42;100.00;100924.09;5248334;28;20040;-81
2024/03/23 06:35:30;;;;;;;11.73;4.32;;;;;;;7.36;100.00;100921.94;5247666;28;20041;-83
2024/03/23 06:38:02;;;;;;;10.63;4.32;;;;;;;7.46;100.00;100922.09;5228847;28;20044;-82
2024/03/23 06:40:36;;;;;;;12.15;4.50;;;;;;;7.55;100.00;100927.50;5247599;28;20032;-81
2024/03/23 06:43:08;;;;;;;8.98;3.80;;;;;;;7.54;100.00;100925.84;5244899;28;20515;-81
2024/03/23 06:45:40;;;;;;;11.37;4.17;;;;;;;7.57;100.00;100922.19;5227499;28;20431;-81
2024/03/23 06:48:12;;;;;;;7.20;3.33;;;;;;;7.67;100.00;100927.59;5245332;28;20364;-80
2024/03/23 06:50:44;;;;;;;10.38;3.30;;;;;;;7.62;100.00;100917.50;5247435;28;20029;-81
2024/03/23 06:53:16;;;;;;;11.93;2.90;;;;;;;7.69;100.00;100925.69;5246171;28;20033;-80
2024/03/23 06:55:52;;;;;;;10.55;3.47;;;;;;;7.77;100.00;100928.59;5248278;28;20047;-81
2024/03/23 06:58:25;;;;;;;8.95;3.42;;;;;;;7.66;100.00;100929.38;5247578;28;20036;-81
2024/03/23 07:00:56;;;;;;;16.85;3.80;;;;;;;7.65;100.00;100930.31;5247072;28;20021;-78
2024/03/23 07:03:28;;;;;;;13.02;3.72;;;;;;;7.67;100.00;100930.19;5245089;28;20040;-80
2024/03/23 07:06:00;;;;;;;9.88;3.45;;;;;;;7.75;100.00;100933.91;5245584;28;20041;-81
2024/03/23 07:08:32;;;;;;;11.95;3.90;;;;;;;7.85;100.00;100933.28;5240103;28;20044;-82
2024/03/23 07:11:04;;;;;;;9.88;3.72;;;;;;;8.00;100.00;100940.81;5244499;28;20037;-80
2024/03/23 07:13:36;;;;;;;10.50;3.83;;;;;;;8.00;100.00;100938.22;5243095;28;20040;-82
2024/03/23 07:16:08;;;;;;;9.93;3.83;;;;;;;7.97;100.00;100937.59;5239271;28;20033;-80
2024/03/23 07:18:40;;;;;;;10.88;4.18;;;;;;;7.96;100.00;100928.13;5246465;28;20725;-82
2024/03/23 07:21:12;;;;;;;14.95;3.95;;;;;;;7.98;100.00;100927.03;5249385;28;20032;-80
2024/03/23 07:23:46;;;;;;;12.07;3.97;;;;;;;7.95;100.00;100931.66;5246943;28;20033;-79
2024/03/23 07:26:18;;;;;;;13.18;3.60;;;;;;;7.94;100.00;100936.03;5247800;28;20052;-80
2024/03/23 07:28:50;;;;;;;16.55;3.83;;;;;;;7.91;100.00;100927.59;5246177;28;20047;-82
2024/03/23 07:31:22;;;;;;;12.85;3.67;;;;;;;7.99;100.00;100933.94;5249044;28;20032;-80
2024/03/23 07:33:54;;;;;;;11.93;3.40;;;;;;;8.12;100.00;100943.47;5228881;28;20041;-82
2024/03/23 07:36:26;;;;;;;10.90;3.10;;;;;;;8.25;100.00;100950.28;5246004;28;20029;-82
2024/03/23 07:38:58;;;;;;;14.43;4.22;;;;;;;8.31;100.00;100933.34;5246693;28;20037;-80
2024/03/23 07:41:30;;;;;;;14.93;3.90;;;;;;;8.27;100.00;100927.53;5249169;28;20033;-81
2024/03/23 07:44:02;;;;;;;13.53;3.63;;;;;;;8.42;100.00;100945.66;5212176;28;1086132;-82
2024/03/23 07:46:34;;;;;;;9.55;3.58;;;;;;;8.46;100.00;100931.41;5249679;28;20064;-81
2024/03/23 07:49:06;;;;;;;14.18;4.43;;;;;;;8.45;100.00;100925.38;5249513;28;20280;-82
2024/03/23 07:51:39;;;;;;;14.23;4.55;;;;;;;8.55;100.00;100925.50;5250639;28;20036;-82
2024/03/23 07:54:11;;;;;;;9.95;3.58;;;;;;;8.68;100.00;100926.25;5249483;28;20032;-80
2024/03/23 07:56:43;;;;;;;15.90;4.07;;;;;;;8.67;100.00;100916.72;5249613;28;20422;-82
2024/03/23 07:59:15;;;;;;;9.13;3.35;;;;;;;8.80;100.00;100918.44;5251110;28;20044;-81
2024/03/23 08:01:47;;;;;;;14.27;3.53;;;;;;;8.86;100.00;100925.78;5249966;28;20039;-83
2024/03/23 08:04:19;;;;;;;9.38;3.33;;;;;;;8.91;100.00;100926.28;5249815;28;20645;-82
2024/03/23 08:06:50;;;;;;;9.02;3.13;;;;;;;8.91;100.00;100916.66;5248533;28;20039;-82
2024/03/23 08:09:22;;;;;;;9.73;3.20;;;;;;;8.99;100.00;100909.06;5251500;28;20039;-81
2024/03/23 08:11:54;;;;;;;9.77;2.92;;;;;;;9.21;100.00;100926.53;5251655;28;20036;-80
2024/03/23 08:14:26;;;;;;;9.55;3.17;;;;;;;9.21;100.00;100910.84;5251353;28;20025;-83
2024/03/23 08:16:58;;;;;;;11.98;3.55;;;;;;;9.33;100.00;100922.13;5250217;28;20040;-81
2024/03/23 08:19:30;;;;;;;10.48;3.10;;;;;;;9.26;100.00;100920.94;5249167;28;20466;-81
2024/03/23 08:22:02;;;;;;;10.38;2.80;;;;;;;9.25;100.00;100914.06;5246725;28;20044;-84
2024/03/23 08:24:34;;;;;;;7.00;2.50;;;;;;;9.39;100.00;100916.41;5245188;28;20041;-80
2024/03/23 08:27:06;;;;;;;10.75;2.42;;;;;;;9.43;100.00;100909.16;5246497;28;20795;-80
2024/03/23 08:29:38;;;;;;;11.70;2.65;;;;;;;9.40;100.00;100896.34;5243791;28;20035;-80
2024/03/23 08:32:10;;;;;;;8.68;2.90;;;;;;;9.63;100.00;100920.66;5243931;28;20041;-82
2024/03/23 08:34:42;;;;;;;6.93;2.28;;;;;;;9.72;100.00;100915.50;5225390;28;20029;-82
2024/03/23 08:37:13;;;;;;;9.65;2.33;;;;;;;9.74;100.00;100907.56;5243321;28;20437;-81
2024/03/23 08:39:45;;;;;;;10.52;3.00;;;;;;;9.92;100.00;100915.69;5245292;28;20029;-81
2024/03/23 08:42:17;;;;;;;12.50;2.50;;;;;;;10.00;100.00;100910.69;5246588;28;20043;-80
2024/03/23 08:44:49;;;;;;;11.35;2.80;;;;;;;10.07;100.00;100917.06;5249528;28;20045;-80
2024/03/23 08:47:21;;;;;;;12.25;2.83;;;;;;;10.28;100.00;100914.53;5252171;28;20043;-81
2024/03/23 08:49:53;;;;;;;9.05;2.63;;;;;;;10.17;100.00;100919.78;5252693;28;20036;-82
2024/03/23 08:52:28;;;;;;;11.80;2.50;;;;;;;10.16;100.00;100915.50;5258735;28;20035;-80
2024/03/23 08:55:01;;;;;;;6.38;1.90;;;;;;;9.90;100.00;100921.06;5256155;28;20041;-79
2024/03/23 08:57:33;;;;;;;6.93;1.75;;;;;;;9.58;100.00;100941.09;5253015;28;20032;-79
2024/03/23 09:00:06;;;;;;;6.38;1.83;;;;;;;9.34;100.00;100949.94;5251301;28;20033;-80
2024/03/23 09:02:40;;;;;;;4.10;1.30;;;;;;;9.02;100.00;100966.31;5252660;28;20044;-80
2024/03/23 09:05:12;;;;;;;4.30;0.90;;;;;;;8.66;100.00;100979.53;5254155;28;20028;-82
2024/03/23 09:07:44;;;;;;;4.35;1.33;;;;;;;8.33;100.00;100975.81;5253555;28;20101;-79
2024/03/23 09:10:16;;;;;;;5.15;1.27;;;;;;;7.92;100.00;100953.59;5230336;28;20044;-79
2024/03/23 09:12:48;;;;;;;4.28;1.20;;;;;;;7.92;100.00;100942.31;5252552;28;20017;-82
2024/03/23 09:15:20;;;;;;;5.15;1.40;;;;;;;7.98;100.00;100928.81;5254047;28;20500;-81
2024/03/23 09:17:51;;;;;;;6.25;1.40;;;;;;;8.08;100.00;100932.44;5252722;28;20041;-80
2024/03/23 09:20:23;;;;;;;4.35;1.10;;;;;;;8.10;100.00;100933.13;5232305;28;20041;-79
2024/03/23 09:22:55;;;;;;;5.15;1.42;;;;;;;8.16;100.00;100924.88;5250121;28;20035;-82
2024/03/23 09:25:27;;;;;;;7.05;1.52;;;;;;;8.42;100.00;100919.53;5251555;28;20039;-80
2024/03/23 09:27:59;;;;;;;5.40;1.48;;;;;;;8.61;100.00;100917.22;5232573;28;20490;-82
2024/03/23 09:30:33;;;;;;;6.45;1.52;;;;;;;8.87;100.00;100919.63;5250500;28;20041;-82
2024/03/23 09:33:05;;;;;;;5.65;2.03;;;;;;;8.96;100.00;100901.47;5250563;28;20095;-83
2024/03/23 09:35:42;;;;;;;8.23;2.10;;;;;;;9.24;100.00;100920.22;5250152;28;20025;-79
2024/03/23 09:38:13;;;;;;;6.47;1.80;;;;;;;9.35;100.00;100903.69;5249694;28;20041;-82
2024/03/23 09:40:49;;;;;;;10.00;2.30;;;;;;;9.56;100.00;100912.47;5245894;28;20343;-80
2024/03/23 09:43:21;;;;;;;7.72;2.20;;;;;;;9.71;100.00;100907.81;5251914;28;20045;-80
2024/03/23 09:45:53;;;;;;;7.88;2.42;;;;;;;9.85;100.00;100906.69;5248989;28;20367;-82
2024/03/23 09:48:26;;;;;;;5.97;1.83;;;;;;;9.97;100.00;100903.09;5251346;28;20040;-82
2024/03/23 09:50:58;;;;;;;6.23;2.10;;;;;;;10.17;100.00;100891.81;5252158;28;20499;-83
2024/03/23 09:53:30;;;;;;;6.18;1.80;;;;;;;10.24;100.00;100897.38;5251970;28;20043;-82
2024/03/23 09:56:02;;;;;;;8.63;2.45;;;;;;;10.40;100.00;100892.56;5253473;28;20035;-81
2024/03/23 09:58:34;;;;;;;9.48;2.55;;;;;;;10.61;100.00;100904.84;5254075;28;20025;-80
2024/03/23 10:01:07;;;;;;;10.60;2.10;;;;;;;10.71;100.00;100898.66;5256017;28;20039;-82
2024/03/23 10:03:43;;;;;;;5.78;1.67;;;;;;;10.64;100.00;100904.53;5254743;28;20044;-81
2024/03/23 10:06:21;;;;;;;5.60;1.25;;;;;;;10.31;96.28;100909.03;5254103;28;20419;-80
2024/03/23 10:08:54;;;;;;;2.60;0.80;;;;;;;9.87;94.31;100920.47;5257223;28;20041;-82
2024/03/23 10:11:29;;;;;;;3.60;1.00;;;;;;;9.66;96.23;100908.19;5253735;28;20231;-80
2024/03/23 10:14:00;;;;;;;5.55;1.25;;;;;;;9.49;100.00;100904.28;5255668;28;20481;-80
2024/03/23 10:16:32;;;;;;;3.63;0.88;;;;;;;9.74;100.00;100910.19;5253976;28;20051;-82
2024/03/23 10:19:06;;;;;;;5.10;1.70;;;;;;;10.02;100.00;100908.78;5255847;28;20037;-82
2024/03/23 10:21:38;;;;;;;3.25;0.98;;;;;;;10.17;100.00;100901.44;5254345;28;20033;-82
2024/03/23 10:24:11;;;;;;;4.30;1.52;;;;;;;10.33;95.80;100912.34;5254611;28;20044;-81
2024/03/23 10:26:43;;;;;;;7.07;1.77;;;;;;;10.53;100.00;100900.22;5256600;28;20526;-81
2024/03/23 10:29:17;;;;;;;6.40;1.50;;;;;;;10.78;100.00;100900.78;5252446;28;20033;-81
2024/03/23 10:31:50;;;;;;;4.60;1.40;;;;;;;10.85;95.01;100894.88;5258504;28;20044;-83
2024/03/23 10:34:26;;;;;;;5.47;2.10;;;;;;;11.11;96.27;100883.97;5262796;28;20325;-82
2024/03/23 10:36:59;;;;;;;7.57;1.83;;;;;;;11.38;94.67;100899.09;5261535;28;20041;-83
2024/03/23 10:39:38;;;;;;;6.82;1.90;;;;;;;11.84;97.94;100906.38;5259224;28;20048;-83
2024/03/23 10:42:10;;;;;;;4.43;1.70;;;;;;;11.83;87.32;100883.72;5239161;28;20477;-81
2024/03/23 10:44:46;;;;;;;6.60;1.45;;;;;;;11.63;82.13;100882.84;5214029;28;20517;-81
2024/03/23 10:47:17;;;;;;;4.63;1.33;;;;;;;11.45;82.07;100884.47;5222075;28;20033;-83
2024/03/23 10:49:49;;;;;;;7.05;1.80;;;;;;;11.33;76.15;100891.63;5221496;28;20038;-82
2024/03/23 10:52:21;;;;;;;6.28;1.83;;;;;;;11.24;86.17;100879.28;5222516;28;20037;-82
2024/03/23 10:54:53;;;;;;;6.25;1.92;;;;;;;11.25;82.41;100886.22;5223009;28;20042;-81
2024/03/23 10:57:37;;;;;;;5.43;1.52;;;;;;;11.46;84.72;100888.75;5223275;28;20026;-83
2024/03/23 11:00:10;;;;;;;7.47;2.15;;;;;;;11.03;84.13;100875.94;5220901;28;20056;-82
2024/03/23 11:02:42;;;;;;;6.80;1.63;;;;;;;11.22;89.38;100883.03;5219862;28;20045;-82
2024/03/23 11:05:26;;;;;;;9.38;1.85;;;;;;;11.56;86.84;100881.75;5218919;28;20037;-82
2024/03/23 11:07:58;;;;;;;5.72;2.10;;;;;;;11.68;88.96;100885.88;5219982;28;20037;-81
2024/03/23 11:10:32;;;;;;;8.60;1.92;;;;;;;11.80;76.06;100878.72;5206392;28;20511;-81
2024/03/23 11:13:23;;;;;;;8.20;1.80;;;;;;;12.04;78.51;100857.31;5210585;28;20522;-81
2024/03/23 11:15:55;;;;;;;7.10;2.00;;;;;;;11.74;72.52;100871.38;5207967;28;20587;-81
2024/03/23 11:18:27;;;;;;;9.85;2.55;;;;;;;11.63;78.04;100892.50;5203801;28;20129;-80
2024/03/23 11:20:59;;;;;;;7.40;1.70;;;;;;;11.48;77.35;100904.34;5219731;28;20057;-80
2024/03/23 11:23:31;;;;;;;6.55;1.80;;;;;;;11.15;63.47;100895.84;5205310;28;20034;-80
2024/03/23 11:26:07;;;;;;;3.33;0.98;;;;;;;11.24;67.51;100894.22;5208214;28;20376;-80
2024/03/23 11:28:39;;;;;;;3.10;0.75;;;;;;;11.11;62.17;100894.44;5207330;28;20045;-81
2024/03/23 11:31:11;;;;;;;2.53;0.60;;;;;;;11.32;68.94;100889.13;5212310;28;20399;-82
2024/03/23 11:33:43;;;;;;;2.83;0.82;;;;;;;11.06;64.54;100889.59;5208911;28;20269;-82
2024/03/23 11:36:19;;;;;;;2.67;0.77;;;;;;;10.89;65.08;100895.44;5211666;28;20032;-81
2024/03/23 11:38:51;;;;;;;1.45;0.77;;;;;;;10.61;62.60;100905.66;5209158;28;20311;-81
2024/03/23 11:41:23;;;;;;;2.90;0.70;;;;;;;10.48;67.73;100899.78;5210353;28;20029;-81
2024/03/23 11:43:55;;;;;;;3.38;0.80;;;;;;;10.47;70.08;100882.41;5229145;28;20426;-81
2024/03/23 11:46:27;;;;;;;1.52;0.63;;;;;;;10.39;65.71;100884.84;5251571;28;20029;-81